createdAt,value
2023-02-11T00:00:40.651Z,53.00
2023-02-11T00:01:40.640Z,49.90
2023-02-11T00:02:40.632Z,49.50
2023-02-11T00:03:40.714Z,47.00
2023-02-11T00:04:40.623Z,54.20
2023-02-11T00:05:40.599Z,47.10
2023-02-11T00:06:40.591Z,47.20
2023-02-11T00:07:40.582Z,46.60
2023-02-11T00:08:40.570Z,46.60
2023-02-11T00:09:40.589Z,48.60
2023-02-11T00:10:40.543Z,48.30
2023-02-11T00:11:40.642Z,48.10
2023-02-11T00:12:40.522Z,47.90
2023-02-11T00:13:40.501Z,50.00
2023-02-11T00:14:40.518Z,47.40
2023-02-11T00:15:40.480Z,47.70
2023-02-11T00:16:40.546Z,44.90
2023-02-11T00:17:40.472Z,53.40
2023-02-11T00:18:40.468Z,49.60
2023-02-11T00:19:40.459Z,45.60
2023-02-11T00:20:40.440Z,45.40
2023-02-11T00:21:40.416Z,46.70
2023-02-11T00:22:40.411Z,49.60
2023-02-11T00:23:40.405Z,49.60
2023-02-11T00:24:40.414Z,48.70
2023-02-11T00:25:40.373Z,48.20
2023-02-11T00:26:40.368Z,50.60
2023-02-11T00:27:40.357Z,52.50
2023-02-11T00:28:40.355Z,53.20
2023-02-11T00:29:40.349Z,50.60
2023-02-11T00:30:40.415Z,45.70
2023-02-11T00:31:40.491Z,50.90
2023-02-11T00:32:40.298Z,48.40
2023-02-11T00:33:40.294Z,47.50
2023-02-11T00:34:40.315Z,44.80
2023-02-11T00:35:40.288Z,47.20
2023-02-11T00:36:40.252Z,46.00
2023-02-11T00:37:40.238Z,49.70
2023-02-11T00:38:40.362Z,46.40
2023-02-11T00:39:40.232Z,49.70
2023-02-11T00:40:40.214Z,49.90
2023-02-11T00:41:40.204Z,44.60
2023-02-11T00:42:40.633Z,50.50
2023-02-11T00:43:40.179Z,50.70
2023-02-11T00:44:40.175Z,49.60
2023-02-11T00:45:40.163Z,46.90
2023-02-11T00:46:40.206Z,49.70
2023-02-11T00:47:40.140Z,49.30
2023-02-11T00:48:40.118Z,53.20
2023-02-11T00:49:40.130Z,49.20
2023-02-11T00:50:40.113Z,58.30
2023-02-11T00:51:40.081Z,51.20
2023-02-11T00:52:40.083Z,50.00
2023-02-11T00:53:40.060Z,47.20
2023-02-11T00:54:40.084Z,53.50
2023-02-11T00:55:40.041Z,49.40
2023-02-11T00:56:40.037Z,51.50
2023-02-11T00:57:40.038Z,49.60
2023-02-11T00:58:40.024Z,49.90
2023-02-11T00:59:40.012Z,51.00
2023-02-11T01:00:39.987Z,50.50
2023-02-11T01:01:40.080Z,47.10
2023-02-11T01:02:39.967Z,44.30
2023-02-11T01:03:39.952Z,51.90
2023-02-11T01:04:39.972Z,52.60
2023-02-11T01:05:39.992Z,53.70
2023-02-11T01:06:39.930Z,52.30
2023-02-11T01:07:39.927Z,47.50
2023-02-11T01:08:39.910Z,53.50
2023-02-11T01:09:39.928Z,49.30
2023-02-11T01:10:39.935Z,52.10
2023-02-11T01:11:39.873Z,51.00
2023-02-11T01:12:39.880Z,53.10
2023-02-11T01:13:39.889Z,53.00
2023-02-11T01:14:39.873Z,51.30
2023-02-11T01:15:39.918Z,56.20
2023-02-11T01:16:39.814Z,51.00
2023-02-11T01:17:39.818Z,44.90
2023-02-11T01:18:39.798Z,52.90
2023-02-11T01:19:39.813Z,51.20
2023-02-11T01:20:39.784Z,48.90
2023-02-11T01:21:39.765Z,47.50
2023-02-11T01:22:39.795Z,52.10
2023-02-11T01:23:39.763Z,51.40
2023-02-11T01:24:39.757Z,49.10
2023-02-11T01:25:39.726Z,51.30
2023-02-11T01:26:39.746Z,49.60
2023-02-11T01:27:39.709Z,48.80
2023-02-11T01:28:39.823Z,49.90
2023-02-11T01:29:39.694Z,48.50
2023-02-11T01:30:39.816Z,55.30
2023-02-11T01:31:39.679Z,53.00
2023-02-11T01:32:39.654Z,52.80
2023-02-11T01:33:39.645Z,49.90
2023-02-11T01:34:39.640Z,47.60
2023-02-11T01:35:39.613Z,51.70
2023-02-11T01:36:39.605Z,48.40
2023-02-11T01:37:39.593Z,49.20
2023-02-11T01:38:39.580Z,50.90
2023-02-11T01:39:39.586Z,45.90
2023-02-11T01:40:39.561Z,44.30
2023-02-11T01:41:39.553Z,46.70
2023-02-11T01:42:39.530Z,54.60
2023-02-11T01:43:39.531Z,51.00
2023-02-11T01:44:39.529Z,50.70
2023-02-11T01:45:39.516Z,49.70
2023-02-11T01:46:39.533Z,48.10
2023-02-11T01:47:39.478Z,48.40
2023-02-11T01:48:39.474Z,48.20
2023-02-11T01:49:39.484Z,46.00
2023-02-11T01:50:39.449Z,46.90
2023-02-11T01:51:39.442Z,46.80
2023-02-11T01:52:39.433Z,47.60
2023-02-11T01:53:39.426Z,48.10
2023-02-11T01:54:39.432Z,49.90
2023-02-11T01:55:39.406Z,51.00
2023-02-11T01:56:39.389Z,48.10
2023-02-11T01:57:39.397Z,48.60
2023-02-11T01:58:39.369Z,45.00
2023-02-11T01:59:39.374Z,51.60
2023-02-11T02:00:39.352Z,48.60
2023-02-11T02:01:39.397Z,49.90
2023-02-11T02:02:39.328Z,48.80
2023-02-11T02:03:39.354Z,48.20
2023-02-11T02:04:39.332Z,47.90
2023-02-11T02:05:39.318Z,48.90
2023-02-11T02:06:39.439Z,51.30
2023-02-11T02:07:39.269Z,45.40
2023-02-11T02:08:39.268Z,46.60
2023-02-11T02:09:39.288Z,47.20
2023-02-11T02:10:39.241Z,50.40
2023-02-11T02:11:39.244Z,49.30
2023-02-11T02:12:39.216Z,51.00
2023-02-11T02:13:39.198Z,45.90
2023-02-11T02:14:39.218Z,51.90
2023-02-11T02:15:39.266Z,48.50
2023-02-11T02:16:39.247Z,45.80
2023-02-11T02:17:39.200Z,43.30
2023-02-11T02:18:39.142Z,47.20
2023-02-11T02:19:39.175Z,51.00
2023-02-11T02:20:39.137Z,43.30
2023-02-11T02:21:39.112Z,44.10
2023-02-11T02:22:39.103Z,45.50
2023-02-11T02:23:39.094Z,43.50
2023-02-11T02:24:39.081Z,47.30
2023-02-11T02:25:39.094Z,44.90
2023-02-11T02:26:39.059Z,44.20
2023-02-11T02:27:39.124Z,44.20
2023-02-11T02:28:39.041Z,47.50
2023-02-11T02:29:39.022Z,48.80
2023-02-11T02:30:39.075Z,48.70
2023-02-11T02:31:39.075Z,44.80
2023-02-11T02:32:38.988Z,45.40
2023-02-11T02:33:38.983Z,41.20
2023-02-11T02:34:38.971Z,43.00
2023-02-11T02:35:38.962Z,46.30
2023-02-11T02:36:38.950Z,38.90
2023-02-11T02:37:38.933Z,45.90
2023-02-11T02:38:38.924Z,44.70
2023-02-11T02:39:38.919Z,42.70
2023-02-11T02:40:38.924Z,41.60
2023-02-11T02:41:38.907Z,44.40
2023-02-11T02:42:38.881Z,49.90
2023-02-11T02:43:38.868Z,46.40
2023-02-11T02:44:38.859Z,46.80
2023-02-11T02:45:38.868Z,42.80
2023-02-11T02:46:38.934Z,40.80
2023-02-11T02:47:38.883Z,41.20
2023-02-11T02:48:38.833Z,42.40
2023-02-11T02:49:38.808Z,47.10
2023-02-11T02:50:38.804Z,46.60
2023-02-11T02:51:38.777Z,39.40
2023-02-11T02:52:38.772Z,42.40
2023-02-11T02:53:38.774Z,44.20
2023-02-11T02:54:38.759Z,41.20
2023-02-11T02:55:38.761Z,40.40
2023-02-11T02:56:38.725Z,43.00
2023-02-11T02:57:38.833Z,43.00
2023-02-11T02:58:38.711Z,42.90
2023-02-11T02:59:38.698Z,42.30
2023-02-11T03:00:38.790Z,39.40
2023-02-11T03:01:38.685Z,39.10
2023-02-11T03:02:38.668Z,43.30
2023-02-11T03:03:38.709Z,45.00
2023-02-11T03:04:38.662Z,40.90
2023-02-11T03:05:38.679Z,42.40
2023-02-11T03:06:38.634Z,43.60
2023-02-11T03:07:38.625Z,45.00
2023-02-11T03:08:38.611Z,40.40
2023-02-11T03:09:38.601Z,37.70
2023-02-11T03:10:38.599Z,41.00
2023-02-11T03:11:38.580Z,38.10
2023-02-11T03:12:38.567Z,42.10
2023-02-11T03:13:38.546Z,41.90
2023-02-11T03:14:38.538Z,38.80
2023-02-11T03:15:38.562Z,38.10
2023-02-11T03:16:38.568Z,42.40
2023-02-11T03:17:38.501Z,42.00
2023-02-11T03:18:38.491Z,43.10
2023-02-11T03:19:38.494Z,40.70
2023-02-11T03:20:38.493Z,38.00
2023-02-11T03:21:38.464Z,38.20
2023-02-11T03:22:38.454Z,37.50
2023-02-11T03:23:38.446Z,40.00
2023-02-11T03:24:38.429Z,42.20
2023-02-11T03:25:38.433Z,36.00
2023-02-11T03:26:38.422Z,39.70
2023-02-11T03:27:38.427Z,37.70
2023-02-11T03:28:38.384Z,36.00
2023-02-11T03:29:38.375Z,34.40
2023-02-11T03:30:38.378Z,39.30
2023-02-11T03:31:38.470Z,40.60
2023-02-11T03:32:38.342Z,41.80
2023-02-11T03:33:38.339Z,36.40
2023-02-11T03:34:38.329Z,36.90
2023-02-11T03:35:38.485Z,33.90
2023-02-11T03:36:38.293Z,36.40
2023-02-11T03:37:38.291Z,38.30
2023-02-11T03:38:38.287Z,35.20
2023-02-11T03:39:38.278Z,37.60
2023-02-11T03:40:38.273Z,32.90
2023-02-11T03:41:38.244Z,37.30
2023-02-11T03:42:38.231Z,34.80
2023-02-11T03:43:38.214Z,35.90
2023-02-11T03:44:38.212Z,39.80
2023-02-11T03:45:38.263Z,30.20
2023-02-11T03:46:38.192Z,32.80
2023-02-11T03:47:38.176Z,33.50
2023-02-11T03:48:38.164Z,36.60
2023-02-11T03:49:38.154Z,37.10
2023-02-11T03:50:38.176Z,33.80
2023-02-11T03:51:38.136Z,37.10
2023-02-11T03:52:38.130Z,33.70
2023-02-11T03:53:38.112Z,33.40
2023-02-11T03:54:38.100Z,36.90
2023-02-11T03:55:38.114Z,31.40
2023-02-11T03:56:38.098Z,33.30
2023-02-11T03:57:38.074Z,31.30
2023-02-11T03:58:38.063Z,32.40
2023-02-11T03:59:38.046Z,29.80
2023-02-11T04:00:38.068Z,36.00
2023-02-11T04:01:38.033Z,29.30
2023-02-11T04:02:38.016Z,30.90
2023-02-11T04:03:43.618Z,35.00
2023-02-11T04:04:37.993Z,31.60
2023-02-11T04:05:38.002Z,33.90
2023-02-11T04:06:37.981Z,31.50
2023-02-11T04:07:37.961Z,31.30
2023-02-11T04:08:37.948Z,30.10
2023-02-11T04:09:37.930Z,29.90
2023-02-11T04:10:37.949Z,30.00
2023-02-11T04:11:37.912Z,31.60
2023-02-11T04:12:37.906Z,32.90
2023-02-11T04:13:37.906Z,30.60
2023-02-11T04:14:37.892Z,31.00
2023-02-11T04:15:37.885Z,32.20
2023-02-11T04:16:37.935Z,26.80
2023-02-11T04:17:37.914Z,32.80
2023-02-11T04:18:37.850Z,30.80
2023-02-11T04:19:37.839Z,31.30
2023-02-11T04:20:37.841Z,32.40
2023-02-11T04:21:37.804Z,32.80
2023-02-11T04:22:38.037Z,31.30
2023-02-11T04:23:37.791Z,30.90
2023-02-11T04:24:37.796Z,32.90
2023-02-11T04:25:37.785Z,34.10
2023-02-11T04:26:38.008Z,27.80
2023-02-11T04:27:37.744Z,31.50
2023-02-11T04:28:37.782Z,28.90
2023-02-11T04:29:37.741Z,30.40
2023-02-11T04:30:37.737Z,31.00
2023-02-11T04:31:37.707Z,25.90
2023-02-11T04:32:37.694Z,32.70
2023-02-11T04:33:37.677Z,34.90
2023-02-11T04:34:37.669Z,29.80
2023-02-11T04:35:37.674Z,30.00
2023-02-11T04:36:37.644Z,30.70
2023-02-11T04:37:37.646Z,30.70
2023-02-11T04:38:37.626Z,27.50
2023-02-11T04:39:37.617Z,31.10
2023-02-11T04:40:37.628Z,31.00
2023-02-11T04:41:37.649Z,31.90
2023-02-11T04:42:37.597Z,27.60
2023-02-11T04:43:37.583Z,25.20
2023-02-11T04:44:37.557Z,24.90
2023-02-11T04:45:37.618Z,29.00
2023-02-11T04:46:37.552Z,30.40
2023-02-11T04:47:37.525Z,26.40
2023-02-11T04:48:37.515Z,29.20
2023-02-11T04:49:37.500Z,31.30
2023-02-11T04:50:37.517Z,27.10
2023-02-11T04:51:37.501Z,27.20
2023-02-11T04:52:37.487Z,27.30
2023-02-11T04:53:37.498Z,29.10
2023-02-11T04:54:37.455Z,24.80
2023-02-11T04:55:37.457Z,27.00
2023-02-11T04:56:37.425Z,28.90
2023-02-11T04:57:37.417Z,27.40
2023-02-11T04:58:37.415Z,32.80
2023-02-11T04:59:37.391Z,29.50
2023-02-11T05:00:37.406Z,28.30
2023-02-11T05:01:37.407Z,29.70
2023-02-11T05:02:37.363Z,25.50
2023-02-11T05:03:37.367Z,29.10
2023-02-11T05:04:37.339Z,32.20
2023-02-11T05:05:37.348Z,29.30
2023-02-11T05:06:37.387Z,24.90
2023-02-11T05:07:37.307Z,27.50
2023-02-11T05:08:37.298Z,23.40
2023-02-11T05:09:37.299Z,29.20
2023-02-11T05:10:37.272Z,31.70
2023-02-11T05:11:37.283Z,27.40
2023-02-11T05:12:37.247Z,27.80
2023-02-11T05:13:37.238Z,26.80
2023-02-11T05:14:37.246Z,27.60
2023-02-11T05:15:37.214Z,33.00
2023-02-11T05:16:37.274Z,24.30
2023-02-11T05:17:37.199Z,28.90
2023-02-11T05:18:37.187Z,27.00
2023-02-11T05:19:37.194Z,27.90
2023-02-11T05:20:37.173Z,26.30
2023-02-11T05:21:38.035Z,28.20
2023-02-11T05:22:37.158Z,28.60
2023-02-11T05:23:37.144Z,31.10
2023-02-11T05:24:37.125Z,26.50
2023-02-11T05:25:37.114Z,30.10
2023-02-11T05:26:37.112Z,25.00
2023-02-11T05:27:37.085Z,26.90
2023-02-11T05:28:37.151Z,28.40
2023-02-11T05:29:37.140Z,24.60
2023-02-11T05:30:37.099Z,28.60
2023-02-11T05:31:37.056Z,28.50
2023-02-11T05:32:37.029Z,29.10
2023-02-11T05:33:37.023Z,26.60
2023-02-11T05:34:37.022Z,26.30
2023-02-11T05:35:37.000Z,25.90
2023-02-11T05:36:37.009Z,27.70
2023-02-11T05:37:36.996Z,26.90
2023-02-11T05:38:36.992Z,32.80
2023-02-11T05:39:36.956Z,25.20
2023-02-11T05:40:36.950Z,27.30
2023-02-11T05:41:36.965Z,28.90
2023-02-11T05:42:36.932Z,28.60
2023-02-11T05:43:36.924Z,26.20
2023-02-11T05:44:36.899Z,24.70
2023-02-11T05:45:36.893Z,24.70
2023-02-11T05:46:36.956Z,22.10
2023-02-11T05:47:36.869Z,27.20
2023-02-11T05:48:36.858Z,26.20
2023-02-11T05:49:36.849Z,28.70
2023-02-11T05:50:36.840Z,27.80
2023-02-11T05:51:36.845Z,24.50
2023-02-11T05:52:36.821Z,25.90
2023-02-11T05:53:36.805Z,22.20
2023-02-11T05:54:36.809Z,29.70
2023-02-11T05:55:36.782Z,28.80
2023-02-11T05:56:36.794Z,26.70
2023-02-11T05:57:36.790Z,25.00
2023-02-11T05:58:36.749Z,25.50
2023-02-11T05:59:36.737Z,24.90
2023-02-11T06:00:36.738Z,22.80
2023-02-11T06:01:36.727Z,24.20
2023-02-11T06:02:36.740Z,24.90
2023-02-11T06:03:36.728Z,29.50
2023-02-11T06:04:36.689Z,25.40
2023-02-11T06:05:36.679Z,26.70
2023-02-11T06:06:36.683Z,23.70
2023-02-11T06:07:36.662Z,28.40
2023-02-11T06:08:39.110Z,25.10
2023-02-11T06:09:36.631Z,25.00
2023-02-11T06:10:36.618Z,22.70
2023-02-11T06:11:36.655Z,26.00
2023-02-11T06:12:36.596Z,22.70
2023-02-11T06:13:36.605Z,23.80
2023-02-11T06:14:36.565Z,24.70
2023-02-11T06:15:36.625Z,26.90
2023-02-11T06:16:36.566Z,23.10
2023-02-11T06:17:36.586Z,26.90
2023-02-11T06:18:36.530Z,24.50
2023-02-11T06:19:36.522Z,27.50
2023-02-11T06:20:36.510Z,29.00
2023-02-11T06:21:43.876Z,30.20
2023-02-11T06:22:36.555Z,23.00
2023-02-11T06:23:36.494Z,26.00
2023-02-11T06:24:58.543Z,26.30
2023-02-11T06:25:36.476Z,27.40
2023-02-11T06:26:36.462Z,26.50
2023-02-11T06:27:36.430Z,26.00
2023-02-11T06:28:36.481Z,24.10
2023-02-11T06:29:36.431Z,25.60
2023-02-11T06:30:36.404Z,28.20
2023-02-11T06:31:36.521Z,27.60
2023-02-11T06:32:43.816Z,25.00
2023-02-11T06:33:36.397Z,23.90
2023-02-11T06:34:36.361Z,28.20
2023-02-11T06:35:36.355Z,25.00
2023-02-11T06:36:36.352Z,24.00
2023-02-11T06:37:36.318Z,24.30
2023-02-11T06:38:36.309Z,22.50
2023-02-11T06:39:36.594Z,24.20
2023-02-11T06:40:36.292Z,35.20
2023-02-11T06:41:36.298Z,23.60
2023-02-11T06:42:36.384Z,27.00
2023-02-11T06:43:36.257Z,27.80
2023-02-11T06:44:36.362Z,27.20
2023-02-11T06:45:36.282Z,30.40
2023-02-11T06:46:36.328Z,27.20
2023-02-11T06:47:36.223Z,29.60
2023-02-11T06:48:36.220Z,25.90
2023-02-11T06:49:36.194Z,24.00
2023-02-11T06:50:36.193Z,27.60
2023-02-11T06:51:36.194Z,24.80
2023-02-11T06:52:36.168Z,26.20
2023-02-11T06:53:36.185Z,24.70
2023-02-11T06:54:36.136Z,27.60
2023-02-11T06:55:36.132Z,23.80
2023-02-11T06:56:36.139Z,22.60
2023-02-11T06:57:36.110Z,22.70
2023-02-11T06:58:36.104Z,23.50
2023-02-11T06:59:36.085Z,25.10
2023-02-11T07:00:36.068Z,25.40
2023-02-11T07:01:36.120Z,24.30
2023-02-11T07:02:36.104Z,22.30
2023-02-11T07:03:36.050Z,26.40
2023-02-11T07:04:36.023Z,24.20
2023-02-11T07:05:36.022Z,23.70
2023-02-11T07:06:36.028Z,25.20
2023-02-11T07:07:36.002Z,24.20
2023-02-11T07:08:36.014Z,23.30
2023-02-11T07:09:35.984Z,24.80
2023-02-11T07:10:35.962Z,24.20
2023-02-11T07:11:35.961Z,22.40
2023-02-11T07:12:35.936Z,22.70
2023-02-11T07:13:35.944Z,25.90
2023-02-11T07:14:35.944Z,20.70
2023-02-11T07:15:35.902Z,23.40
2023-02-11T07:16:36.014Z,24.30
2023-02-11T07:17:35.884Z,24.60
2023-02-11T07:18:35.891Z,25.40
2023-02-11T07:19:35.869Z,23.70
2023-02-11T07:20:35.855Z,23.60
2023-02-11T07:21:35.860Z,24.30
2023-02-11T07:22:35.851Z,24.40
2023-02-11T07:23:35.827Z,25.40
2023-02-11T07:24:35.824Z,22.70
2023-02-11T07:25:35.807Z,23.40
2023-02-11T07:26:35.806Z,23.60
2023-02-11T07:27:35.769Z,24.70
2023-02-11T07:28:35.818Z,24.40
2023-02-11T07:29:35.782Z,25.20
2023-02-11T07:30:35.742Z,24.60
2023-02-11T07:31:35.878Z,23.30
2023-02-11T07:32:35.726Z,24.10
2023-02-11T07:33:35.718Z,26.00
2023-02-11T07:34:35.813Z,23.80
2023-02-11T07:35:35.685Z,22.50
2023-02-11T07:36:35.698Z,25.00
2023-02-11T07:37:35.670Z,24.90
2023-02-11T07:38:35.663Z,26.20
2023-02-11T07:39:35.647Z,22.20
2023-02-11T07:40:35.638Z,28.20
2023-02-11T07:41:37.908Z,24.40
2023-02-11T07:42:35.625Z,25.30
2023-02-11T07:43:35.613Z,27.60
2023-02-11T07:44:35.599Z,28.30
2023-02-11T07:45:35.581Z,26.00
2023-02-11T07:46:35.694Z,25.90
2023-02-11T07:47:35.658Z,27.50
2023-02-11T07:48:35.575Z,22.70
2023-02-11T07:49:35.537Z,24.40
2023-02-11T07:50:35.526Z,27.60
2023-02-11T07:51:35.532Z,24.10
2023-02-11T07:52:35.505Z,25.20
2023-02-11T07:53:35.498Z,24.70
2023-02-11T07:54:35.489Z,26.50
2023-02-11T07:55:35.468Z,28.70
2023-02-11T07:56:35.476Z,28.00
2023-02-11T07:57:35.654Z,26.60
2023-02-11T07:58:35.435Z,26.00
2023-02-11T07:59:35.426Z,28.30
2023-02-11T08:00:35.431Z,27.80
2023-02-11T08:01:35.423Z,22.20
2023-02-11T08:02:35.459Z,23.00
2023-02-11T08:03:35.399Z,27.60
2023-02-11T08:04:35.375Z,26.20
2023-02-11T08:05:35.363Z,26.20
2023-02-11T08:06:35.396Z,27.70
2023-02-11T08:07:36.066Z,27.70
2023-02-11T08:08:35.331Z,25.30
2023-02-11T08:09:35.313Z,26.60
2023-02-11T08:10:35.318Z,27.80
2023-02-11T08:11:35.743Z,23.90
2023-02-11T08:12:35.291Z,26.00
2023-02-11T08:13:35.272Z,25.30
2023-02-11T08:14:35.260Z,23.90
2023-02-11T08:15:35.259Z,29.80
2023-02-11T08:16:35.307Z,24.40
2023-02-11T08:17:35.233Z,27.90
2023-02-11T08:18:35.219Z,26.00
2023-02-11T08:19:35.432Z,26.90
2023-02-11T08:20:35.184Z,23.60
2023-02-11T08:21:35.243Z,23.30
2023-02-11T08:22:35.204Z,25.90
2023-02-11T08:23:35.352Z,22.00
2023-02-11T08:24:35.233Z,24.60
2023-02-11T08:25:35.141Z,28.80
2023-02-11T08:26:35.135Z,23.10
2023-02-11T08:27:35.131Z,24.80
2023-02-11T08:28:35.196Z,29.70
2023-02-11T08:29:35.097Z,24.20
2023-02-11T08:30:35.087Z,24.20
2023-02-11T08:31:35.210Z,25.70
2023-02-11T08:32:35.153Z,21.90
2023-02-11T08:33:35.071Z,25.40
2023-02-11T08:34:35.038Z,28.40
2023-02-11T08:35:35.343Z,27.50
2023-02-11T08:36:35.011Z,27.00
2023-02-11T08:37:35.027Z,25.60
2023-02-11T08:38:35.447Z,22.80
2023-02-11T08:39:34.996Z,26.00
2023-02-11T08:40:34.971Z,27.50
2023-02-11T08:41:34.956Z,26.60
2023-02-11T08:42:34.965Z,30.10
2023-02-11T08:43:34.940Z,23.20
2023-02-11T08:44:34.930Z,24.80
2023-02-11T08:45:34.946Z,23.40
2023-02-11T08:46:34.917Z,21.50
2023-02-11T08:47:34.911Z,25.40
2023-02-11T08:48:34.884Z,22.00
2023-02-11T08:49:34.869Z,20.20
2023-02-11T08:50:34.863Z,22.80
2023-02-11T08:51:34.853Z,27.50
2023-02-11T08:52:34.856Z,28.40
2023-02-11T08:53:35.335Z,26.30
2023-02-11T08:54:34.814Z,22.60
2023-02-11T08:55:34.901Z,20.90
2023-02-11T08:56:34.796Z,24.40
2023-02-11T08:57:35.598Z,21.70
2023-02-11T08:58:34.777Z,22.50
2023-02-11T08:59:34.774Z,23.00
2023-02-11T09:00:34.750Z,23.60
2023-02-11T09:01:34.833Z,24.90
2023-02-11T09:02:34.814Z,22.80
2023-02-11T09:03:34.728Z,21.80
2023-02-11T09:04:34.722Z,22.60
2023-02-11T09:05:34.789Z,20.30
2023-02-11T09:06:34.719Z,20.50
2023-02-11T09:07:34.692Z,26.20
2023-02-11T09:08:34.705Z,21.30
2023-02-11T09:09:34.666Z,23.80
2023-02-11T09:10:34.652Z,26.50
2023-02-11T09:11:34.630Z,20.60
2023-02-11T09:12:34.997Z,20.30
2023-02-11T09:13:34.974Z,22.20
2023-02-11T09:14:34.599Z,22.90
2023-02-11T09:15:34.590Z,20.80
2023-02-11T09:16:34.671Z,20.30
2023-02-11T09:17:34.612Z,21.40
2023-02-11T09:18:34.564Z,20.40
2023-02-11T09:19:34.553Z,21.70
2023-02-11T09:20:34.527Z,17.40
2023-02-11T09:21:34.534Z,21.20
2023-02-11T09:22:35.360Z,20.70
2023-02-11T09:23:34.523Z,20.50
2023-02-11T09:24:34.495Z,21.80
2023-02-11T09:25:34.473Z,23.30
2023-02-11T09:26:34.587Z,25.40
2023-02-11T09:27:34.918Z,18.60
2023-02-11T09:28:34.517Z,23.20
2023-02-11T09:29:34.436Z,21.50
2023-02-11T09:30:34.891Z,20.40
2023-02-11T09:31:34.574Z,22.40
2023-02-11T09:32:34.427Z,19.20
2023-02-11T09:33:34.387Z,20.40
2023-02-11T09:34:34.490Z,21.80
2023-02-11T09:35:34.383Z,25.40
2023-02-11T09:36:34.368Z,20.30
2023-02-11T09:37:36.997Z,19.70
2023-02-11T09:38:34.346Z,22.10
2023-02-11T09:39:34.330Z,20.70
2023-02-11T09:40:34.647Z,20.20
2023-02-11T09:41:34.309Z,23.10
2023-02-11T09:42:34.310Z,24.50
2023-02-11T09:43:34.286Z,20.00
2023-02-11T09:44:34.280Z,22.30
2023-02-11T09:45:34.263Z,19.40
2023-02-11T09:46:34.338Z,25.90
2023-02-11T09:47:34.260Z,25.70
2023-02-11T09:48:34.230Z,18.60
2023-02-11T09:49:34.220Z,21.90
2023-02-11T09:50:34.204Z,22.40
2023-02-11T09:51:34.188Z,22.60
2023-02-11T09:52:34.214Z,22.40
2023-02-11T09:53:34.182Z,19.50
2023-02-11T09:54:34.173Z,20.70
2023-02-11T09:55:34.179Z,19.10
2023-02-11T09:56:34.155Z,18.40
2023-02-11T09:57:34.152Z,20.10
2023-02-11T09:58:34.131Z,17.50
2023-02-11T09:59:34.109Z,20.70
2023-02-11T10:00:34.101Z,23.00
2023-02-11T10:01:34.114Z,19.50
2023-02-11T10:02:34.087Z,18.50
2023-02-11T10:03:34.070Z,17.80
2023-02-11T10:04:34.140Z,21.10
2023-02-11T10:05:34.038Z,19.80
2023-02-11T10:06:34.032Z,19.90
2023-02-11T10:07:34.045Z,20.80
2023-02-11T10:08:34.011Z,22.30
2023-02-11T10:09:34.018Z,22.40
2023-02-11T10:10:33.993Z,19.40
2023-02-11T10:11:33.982Z,20.00
2023-02-11T10:12:33.990Z,21.70
2023-02-11T10:13:33.955Z,18.90
2023-02-11T10:14:33.950Z,18.80
2023-02-11T10:15:33.950Z,24.40
2023-02-11T10:16:33.928Z,22.30
2023-02-11T10:17:33.936Z,28.40
2023-02-11T10:18:33.911Z,29.00
2023-02-11T10:19:33.908Z,27.70
2023-02-11T10:20:33.884Z,20.70
2023-02-11T10:21:33.878Z,19.50
2023-02-11T10:22:33.878Z,18.30
2023-02-11T10:23:33.850Z,24.10
2023-02-11T10:24:33.845Z,20.80
2023-02-11T10:25:33.831Z,20.00
2023-02-11T10:26:33.824Z,20.50
2023-02-11T10:27:33.826Z,21.60
2023-02-11T10:28:33.814Z,18.80
2023-02-11T10:29:33.782Z,23.70
2023-02-11T10:30:33.806Z,29.60
2023-02-11T10:31:33.856Z,23.40
2023-02-11T10:32:33.778Z,21.80
2023-02-11T10:33:33.758Z,23.70
2023-02-11T10:34:33.736Z,19.30
2023-02-11T10:35:33.719Z,17.00
2023-02-11T10:36:33.712Z,19.60
2023-02-11T10:37:33.707Z,21.50
2023-02-11T10:38:33.689Z,20.70
2023-02-11T10:39:33.685Z,27.30
2023-02-11T10:40:33.670Z,22.40
2023-02-11T10:41:33.651Z,30.00
2023-02-11T10:42:33.666Z,18.00
2023-02-11T10:43:33.645Z,20.70
2023-02-11T10:44:33.627Z,21.10
2023-02-11T10:45:33.620Z,15.70
2023-02-11T10:46:33.716Z,18.30
2023-02-11T10:47:33.620Z,22.80
2023-02-11T10:48:33.584Z,18.30
2023-02-11T10:49:33.955Z,21.10
2023-02-11T10:50:33.566Z,24.00
2023-02-11T10:51:33.568Z,22.10
2023-02-11T10:52:33.561Z,24.80
2023-02-11T10:53:33.546Z,20.80
2023-02-11T10:54:33.516Z,19.00
2023-02-11T10:55:33.507Z,21.30
2023-02-11T10:56:33.509Z,18.60
2023-02-11T10:57:33.520Z,20.80
2023-02-11T10:58:33.485Z,20.90
2023-02-11T10:59:33.490Z,34.40
2023-02-11T11:00:33.458Z,30.30
2023-02-11T11:01:33.470Z,21.90
2023-02-11T11:02:33.465Z,21.10
2023-02-11T11:03:33.499Z,21.80
2023-02-11T11:04:33.445Z,19.60
2023-02-11T11:05:33.397Z,21.50
2023-02-11T11:06:33.389Z,16.80
2023-02-11T11:07:33.390Z,18.90
2023-02-11T11:08:33.365Z,21.20
2023-02-11T11:09:33.524Z,18.50
2023-02-11T11:10:33.366Z,18.50
2023-02-11T11:11:33.342Z,18.20
2023-02-11T11:12:33.356Z,17.30
2023-02-11T11:13:33.330Z,15.10
2023-02-11T11:14:33.339Z,17.50
2023-02-11T11:15:33.296Z,17.20
2023-02-11T11:16:33.283Z,17.50
2023-02-11T11:17:33.346Z,16.10
2023-02-11T11:18:33.265Z,16.70
2023-02-11T11:19:33.249Z,16.80
2023-02-11T11:20:33.236Z,15.90
2023-02-11T11:21:33.227Z,20.40
2023-02-11T11:22:33.229Z,19.00
2023-02-11T11:23:33.242Z,19.40
2023-02-11T11:24:33.208Z,15.30
2023-02-11T11:25:33.198Z,14.80
2023-02-11T11:26:33.185Z,19.00
2023-02-11T11:27:33.225Z,21.50
2023-02-11T11:28:33.205Z,15.70
2023-02-11T11:29:33.136Z,15.80
2023-02-11T11:30:33.827Z,16.90
2023-02-11T11:31:33.274Z,17.70
2023-02-11T11:32:33.135Z,18.20
2023-02-11T11:33:33.097Z,18.90
2023-02-11T11:34:33.107Z,19.60
2023-02-11T11:35:33.086Z,17.80
2023-02-11T11:36:33.065Z,19.40
2023-02-11T11:37:33.066Z,22.40
2023-02-11T11:38:33.065Z,17.20
2023-02-11T11:39:33.029Z,16.60
2023-02-11T11:40:33.027Z,20.60
2023-02-11T11:41:33.002Z,19.50
2023-02-11T11:42:33.014Z,19.50
2023-02-11T11:43:32.982Z,18.50
2023-02-11T11:44:33.155Z,18.30
2023-02-11T11:45:32.955Z,17.30
2023-02-11T11:46:33.065Z,18.40
2023-02-11T11:47:32.953Z,16.50
2023-02-11T11:48:32.946Z,18.20
2023-02-11T11:49:32.916Z,17.80
2023-02-11T11:50:32.908Z,16.80
2023-02-11T11:51:32.894Z,22.90
2023-02-11T11:52:33.059Z,24.20
2023-02-11T11:53:32.887Z,26.40
2023-02-11T11:54:32.874Z,21.90
2023-02-11T11:55:32.848Z,15.60
2023-02-11T11:56:32.922Z,19.70
2023-02-11T11:57:33.142Z,21.10
2023-02-11T11:58:32.827Z,19.20
2023-02-11T11:59:32.825Z,18.70
2023-02-11T12:00:32.799Z,18.10
2023-02-11T12:01:32.820Z,18.00
2023-02-11T12:02:32.800Z,22.30
2023-02-11T12:03:32.775Z,21.60
2023-02-11T12:04:32.768Z,19.10
2023-02-11T12:05:33.126Z,18.40
2023-02-11T12:06:32.740Z,13.40
2023-02-11T12:07:32.853Z,14.50
2023-02-11T12:08:32.790Z,14.40
2023-02-11T12:09:32.711Z,17.30
2023-02-11T12:10:32.699Z,16.10
2023-02-11T12:11:32.680Z,14.90
2023-02-11T12:12:32.702Z,15.90
2023-02-11T12:13:32.673Z,16.50
2023-02-11T12:14:32.837Z,12.60
2023-02-11T12:15:32.634Z,13.10
2023-02-11T12:16:32.658Z,12.60
2023-02-11T12:17:32.631Z,17.20
2023-02-11T12:18:32.599Z,13.00
2023-02-11T12:19:32.598Z,17.00
2023-02-11T12:20:32.584Z,14.60
2023-02-11T12:21:32.576Z,13.90
2023-02-11T12:22:32.590Z,16.20
2023-02-11T12:23:32.546Z,13.20
2023-02-11T12:24:32.540Z,14.90
2023-02-11T12:25:32.532Z,15.70
2023-02-11T12:26:32.527Z,14.10
2023-02-11T12:27:32.519Z,16.30
2023-02-11T12:28:32.565Z,11.90
2023-02-11T12:29:32.501Z,14.00
2023-02-11T12:30:32.508Z,15.30
2023-02-11T12:31:32.546Z,13.00
2023-02-11T12:32:32.477Z,11.50
2023-02-11T12:33:32.438Z,13.20
2023-02-11T12:34:32.450Z,11.70
2023-02-11T12:35:32.416Z,12.60
2023-02-11T12:36:32.429Z,14.40
2023-02-11T12:37:32.411Z,13.20
2023-02-11T12:38:32.425Z,13.00
2023-02-11T12:39:32.385Z,14.50
2023-02-11T12:40:32.371Z,14.60
2023-02-11T12:41:32.358Z,12.00
2023-02-11T12:42:32.357Z,10.90
2023-02-11T12:43:32.353Z,15.00
2023-02-11T12:44:32.324Z,14.50
2023-02-11T12:45:32.351Z,13.70
2023-02-11T12:46:32.304Z,12.50
2023-02-11T12:47:32.286Z,13.80
2023-02-11T12:48:35.419Z,14.10
2023-02-11T12:49:32.272Z,11.90
2023-02-11T12:50:32.263Z,12.20
2023-02-11T12:51:32.252Z,11.60
2023-02-11T12:52:32.247Z,14.60